Time;durP1;ratioP1;P1;durP2;ratioP2;P2;SDS_P1;SDS_P2;PMS_P1;PMS_P2;Temp;Humidity;BMP_temperature;BMP_pressure;BME280_temperature;BME280_humidity;BME280_pressure;Samples;Min_cycle;Max_cycle;Signal;HPM_P1;HPM_P2
2021/06/09 00:02:07;;;;;;;13.48;7.30;;;;;;;15.06;93.49;100023.59;1649025;87;21216;-56
2021/06/09 00:05:13;;;;;;;10.45;7.50;;;;;;;15.03;93.36;100018.82;1694105;81;21304;-56
2021/06/09 00:08:19;;;;;;;10.32;7.55;;;;;;;15.00;93.61;100018.39;1701663;84;21343;-56
2021/06/09 00:11:25;;;;;;;12.33;8.53;;;;;;;14.95;93.35;100020.97;1701378;84;21366;-56
2021/06/09 00:14:31;;;;;;;11.18;8.03;;;;;;;14.88;93.52;100018.73;1686661;84;21276;-56
2021/06/09 00:17:37;;;;;;;12.60;8.28;;;;;;;14.86;93.68;100025.83;1701628;84;22214;-55
2021/06/09 00:20:43;;;;;;;12.07;9.73;;;;;;;14.84;93.79;100026.56;1701185;84;21401;-54
2021/06/09 00:23:51;;;;;;;10.75;8.83;;;;;;;14.83;93.95;100013.00;1685405;84;21205;-56
2021/06/09 00:26:56;;;;;;;14.10;9.63;;;;;;;14.85;94.18;100010.89;1651924;86;21292;-55
2021/06/09 00:30:03;;;;;;;23.90;9.70;;;;;;;14.88;94.44;100002.19;1635306;87;21322;-55
2021/06/09 00:33:09;;;;;;;15.60;8.88;;;;;;;14.88;94.29;99999.44;1701778;84;21209;-55
2021/06/09 00:36:15;;;;;;;13.40;8.75;;;;;;;14.83;94.21;100000.08;1701199;84;21370;-56
2021/06/09 00:39:21;;;;;;;13.20;9.88;;;;;;;14.84;94.51;100004.52;1673129;84;21261;-55
2021/06/09 00:42:30;;;;;;;16.90;8.75;;;;;;;14.88;94.75;100004.95;1670004;86;21291;-54
2021/06/09 00:45:37;;;;;;;12.50;8.55;;;;;;;14.90;94.75;100002.84;1670048;86;21296;-55
2021/06/09 00:48:45;;;;;;;11.65;8.58;;;;;;;14.87;94.54;100012.91;1669477;85;21240;-55
2021/06/09 00:51:50;;;;;;;12.18;7.97;;;;;;;14.83;94.37;100002.84;1669596;86;21808;-56
2021/06/09 00:54:56;;;;;;;9.53;7.78;;;;;;;14.80;94.29;100002.41;1669703;86;21313;-55
2021/06/09 00:58:00;;;;;;;12.90;8.00;;;;;;;14.78;94.19;99999.00;1669628;86;21232;-55
2021/06/09 01:01:05;;;;;;;9.58;7.08;;;;;;;14.72;94.02;99997.10;1669596;86;21248;-55
2021/06/09 01:04:11;;;;;;;13.62;7.53;;;;;;;14.67;94.02;100002.39;1670181;86;21229;-55
2021/06/09 01:07:16;;;;;;;12.35;7.35;;;;;;;14.63;94.14;100013.53;1671489;85;21423;-56
2021/06/09 01:10:21;;;;;;;11.95;7.67;;;;;;;14.61;94.13;100004.62;1672151;86;21441;-55
2021/06/09 01:13:33;;;;;;;11.65;7.35;;;;;;;14.60;94.16;100001.56;1672682;85;21379;-55
2021/06/09 01:16:38;;;;;;;12.73;7.33;;;;;;;14.55;93.85;100003.58;1672588;85;21236;-55
2021/06/09 01:19:43;;;;;;;8.08;6.20;;;;;;;14.50;93.52;100003.88;1672418;85;21465;-54
2021/06/09 01:22:48;;;;;;;9.23;6.50;;;;;;;14.47;93.52;99998.27;1672515;86;21408;-54
2021/06/09 01:25:54;;;;;;;9.80;6.25;;;;;;;14.43;93.35;100003.03;1668631;85;21386;-54
2021/06/09 01:29:03;;;;;;;7.92;6.05;;;;;;;14.41;93.43;99992.20;1656033;85;21385;-54
2021/06/09 01:32:09;;;;;;;8.95;6.17;;;;;;;14.40;93.49;99993.27;1672416;85;21248;-54
2021/06/09 01:35:15;;;;;;;7.28;5.67;;;;;;;14.42;93.63;100002.70;1672596;85;21312;-55
2021/06/09 01:38:21;;;;;;;7.53;5.62;;;;;;;14.39;93.66;99994.34;1672524;86;21363;-54
2021/06/09 01:41:30;;;;;;;6.47;5.62;;;;;;;14.36;93.53;100000.27;1672190;86;21419;-54
2021/06/09 01:44:37;;;;;;;7.90;5.72;;;;;;;14.33;93.44;99992.95;1672685;85;21754;-55
2021/06/09 01:47:42;;;;;;;8.40;5.58;;;;;;;14.30;93.31;99998.88;1673505;85;21366;-54
2021/06/09 01:50:49;;;;;;;9.00;5.62;;;;;;;14.29;93.44;99998.53;1672152;86;21261;-54
2021/06/09 01:53:55;;;;;;;8.28;5.85;;;;;;;14.29;93.23;99999.91;1672209;86;21205;-54
2021/06/09 01:57:00;;;;;;;7.78;5.08;;;;;;;14.26;93.12;100010.83;1672952;85;21371;-54
2021/06/09 02:00:04;;;;;;;8.75;5.62;;;;;;;14.24;92.96;100010.18;1657416;86;21868;-54
2021/06/09 02:03:10;;;;;;;8.65;5.25;;;;;;;14.23;92.97;100011.22;1671939;86;21391;-54
2021/06/09 02:06:16;;;;;;;8.28;5.20;;;;;;;14.23;92.93;100007.61;1673367;83;21434;-54
2021/06/09 02:09:21;;;;;;;7.50;6.20;;;;;;;14.23;92.98;100008.98;1674362;85;21236;-54
2021/06/09 02:12:28;;;;;;;7.53;5.83;;;;;;;14.25;92.99;100013.80;1679046;84;21244;-55
2021/06/09 02:15:34;;;;;;;9.23;6.00;;;;;;;14.27;92.97;100018.57;1682110;85;21264;-55
2021/06/09 02:18:39;;;;;;;11.53;5.70;;;;;;;14.30;93.05;100023.66;1684655;85;21202;-54
2021/06/09 02:21:46;;;;;;;9.00;5.37;;;;;;;14.33;93.11;100024.61;1684662;85;21242;-54
2021/06/09 02:24:52;;;;;;;6.85;5.45;;;;;;;14.36;92.99;100027.80;1684490;85;21240;-55
2021/06/09 02:27:58;;;;;;;10.03;5.85;;;;;;;14.38;92.78;100023.47;1684727;85;21197;-54
2021/06/09 02:31:04;;;;;;;7.60;5.92;;;;;;;14.37;92.48;100025.36;1684146;85;21213;-54
2021/06/09 02:34:11;;;;;;;10.45;5.90;;;;;;;14.37;92.68;100023.98;1684601;85;21268;-54
2021/06/09 02:37:19;;;;;;;8.63;6.22;;;;;;;14.41;92.81;100021.67;1684415;85;21193;-54
2021/06/09 02:40:24;;;;;;;8.83;6.22;;;;;;;14.47;93.15;100020.83;1684427;85;21284;-55
2021/06/09 02:43:33;;;;;;;8.03;6.15;;;;;;;14.54;93.32;100023.89;1683766;85;21280;-55
2021/06/09 02:46:49;;;;;;;7.37;5.80;;;;;;;14.63;93.48;100030.06;1684756;85;21290;-55
2021/06/09 02:49:55;;;;;;;11.35;6.85;;;;;;;14.70;93.61;100033.14;1682244;84;21316;-56
2021/06/09 02:53:14;;;;;;;11.48;6.58;;;;;;;14.80;93.86;100026.69;1674042;85;21225;-54
2021/06/09 02:56:44;;;;;;;8.85;6.15;;;;;;;14.92;93.96;100026.91;1656778;85;21765;-55
2021/06/09 03:00:11;;;;;;;10.18;6.28;;;;;;;15.02;93.81;100024.55;1674099;85;21378;-55
2021/06/09 03:03:25;;;;;;;8.88;5.80;;;;;;;15.13;93.71;100034.93;1673976;85;21237;-51
2021/06/09 03:06:37;;;;;;;10.43;6.33;;;;;;;15.25;93.75;100031.86;1674879;85;21261;-53
2021/06/09 03:10:22;;;;;;;9.50;6.28;;;;;;;15.36;93.64;100026.20;1678762;80;21239;-53
2021/06/09 03:13:54;;;;;;;9.10;6.78;;;;;;;15.47;93.65;100025.06;1676552;85;21268;-52
2021/06/09 03:17:04;;;;;;;13.08;6.92;;;;;;;15.58;93.54;100034.05;1676503;85;21339;-52
2021/06/09 03:20:34;;;;;;;10.08;7.10;;;;;;;15.68;93.43;100034.42;1662028;85;21260;-52
2021/06/09 03:24:19;;;;;;;12.73;7.83;;;;;;;15.78;93.37;100032.58;1676511;85;21256;-52
2021/06/09 03:27:38;;;;;;;10.70;8.03;;;;;;;15.88;93.25;100033.84;1676643;85;21240;-52
2021/06/09 03:30:45;;;;;;;9.35;7.28;;;;;;;15.97;93.08;100032.52;1676396;85;21224;-51
2021/06/09 03:33:52;;;;;;;10.30;7.75;;;;;;;16.04;92.86;100035.25;1676524;85;21204;-52
2021/06/09 03:36:58;;;;;;;12.30;7.42;;;;;;;16.08;92.77;100035.11;1676566;85;21265;-52
2021/06/09 03:40:03;;;;;;;10.15;8.40;;;;;;;16.13;92.79;100032.02;1676550;85;21280;-51
2021/06/09 03:43:12;;;;;;;13.90;8.05;;;;;;;16.23;92.89;100032.41;1676560;85;21209;-52
2021/06/09 03:46:18;;;;;;;9.43;7.22;;;;;;;16.30;92.77;100031.81;1676388;85;21272;-53
2021/06/09 03:49:26;;;;;;;8.75;7.35;;;;;;;16.35;92.69;100032.52;1676180;85;21283;-51
2021/06/09 03:52:32;;;;;;;10.55;7.25;;;;;;;16.42;92.59;100025.91;1676428;85;21226;-52
2021/06/09 03:55:41;;;;;;;9.33;7.12;;;;;;;16.50;92.44;100032.26;1676516;85;21260;-51
2021/06/09 03:58:46;;;;;;;13.13;8.03;;;;;;;16.56;92.25;100032.75;1676498;85;21232;-52
2021/06/09 04:01:52;;;;;;;8.35;7.20;;;;;;;16.61;91.99;100035.69;1676392;85;21635;-52
2021/06/09 04:05:01;;;;;;;9.15;7.15;;;;;;;16.65;91.82;100032.81;1676366;85;21414;-52
2021/06/09 04:08:06;;;;;;;9.88;7.20;;;;;;;16.73;91.75;100033.92;1676420;85;21232;-52
2021/06/09 04:11:11;;;;;;;10.80;7.72;;;;;;;16.82;91.81;100028.42;1683797;85;21390;-53
2021/06/09 04:14:19;;;;;;;11.85;7.15;;;;;;;16.93;91.84;100031.84;1673675;85;21971;-53
2021/06/09 04:17:32;;;;;;;8.93;7.10;;;;;;;17.04;91.78;100040.78;1673747;85;21391;-53
2021/06/09 04:20:37;;;;;;;9.28;7.00;;;;;;;17.15;91.79;100037.28;1683962;85;21371;-52
2021/06/09 04:23:42;;;;;;;10.45;8.00;;;;;;;17.26;91.78;100033.77;1684135;85;21211;-53
2021/06/09 04:26:47;;;;;;;12.68;8.20;;;;;;;17.36;91.90;100033.55;1673849;85;21694;-54
2021/06/09 04:29:55;;;;;;;10.78;7.70;;;;;;;17.47;91.78;100037.54;1683594;85;21418;-54
2021/06/09 04:33:10;;;;;;;9.58;7.20;;;;;;;17.59;91.65;100037.08;1668824;84;21446;-53
2021/06/09 04:36:21;;;;;;;8.53;6.95;;;;;;;17.69;91.33;100036.02;1686702;84;21454;-53
2021/06/09 04:39:27;;;;;;;8.95;7.22;;;;;;;17.78;91.23;100038.25;1660409;85;21240;-51
2021/06/09 04:42:32;;;;;;;6.78;5.92;;;;;;;17.91;90.86;100042.78;1673973;85;21370;-52
2021/06/09 04:45:37;;;;;;;8.00;6.22;;;;;;;18.00;90.16;100042.77;1664702;85;21247;-50
2021/06/09 04:48:43;;;;;;;7.25;6.10;;;;;;;18.10;89.62;100039.45;1682976;85;21216;-50
2021/06/09 04:51:48;;;;;;;9.48;6.28;;;;;;;18.18;88.94;100039.99;1669597;85;21217;-53
2021/06/09 04:54:53;;;;;;;6.20;5.60;;;;;;;18.27;88.13;100047.42;1674372;84;21848;-53
2021/06/09 04:58:03;;;;;;;8.40;5.58;;;;;;;18.35;87.32;100047.10;1654024;86;21968;-53
2021/06/09 05:01:14;;;;;;;8.00;6.33;;;;;;;18.46;86.51;100052.73;1657039;86;21305;-53
2021/06/09 05:04:23;;;;;;;9.68;6.75;;;;;;;18.56;85.65;100052.17;1656576;86;21189;-51
2021/06/09 05:07:30;;;;;;;8.50;6.15;;;;;;;18.66;84.84;100051.08;1662785;84;21365;-53
2021/06/09 05:10:35;;;;;;;8.68;6.42;;;;;;;18.76;84.06;100052.71;1668702;84;21262;-52
2021/06/09 05:13:41;;;;;;;7.17;5.83;;;;;;;18.86;83.49;100050.22;1697495;83;21212;-49
2021/06/09 05:16:49;;;;;;;7.80;6.25;;;;;;;18.94;82.52;100052.12;1656729;86;21228;-48
2021/06/09 05:19:57;;;;;;;7.97;6.00;;;;;;;19.03;81.91;100057.62;1672881;85;21245;-49
2021/06/09 05:23:16;;;;;;;10.50;7.55;;;;;;;19.10;81.39;100056.98;1682224;83;21186;-49
2021/06/09 05:26:22;;;;;;;8.90;6.92;;;;;;;19.19;80.85;100063.01;1684169;85;21226;-48
2021/06/09 05:29:28;;;;;;;10.78;7.55;;;;;;;19.27;80.62;100060.73;1684326;85;21585;-47
2021/06/09 05:32:36;;;;;;;10.68;7.33;;;;;;;19.34;80.54;100055.93;1684501;85;21213;-48
2021/06/09 05:35:43;;;;;;;9.35;7.47;;;;;;;19.40;80.01;100063.00;1668930;84;21204;-53
2021/06/09 05:38:50;;;;;;;11.63;7.28;;;;;;;19.46;79.51;100060.11;1670691;84;21407;-54
2021/06/09 05:41:55;;;;;;;8.70;7.28;;;;;;;19.54;79.53;100065.84;1690600;84;21749;-54
2021/06/09 05:45:03;;;;;;;9.85;7.33;;;;;;;19.62;79.33;100061.31;1690486;84;21251;-55
2021/06/09 05:48:08;;;;;;;12.37;8.10;;;;;;;19.68;79.00;100058.98;1681730;85;21221;-55
2021/06/09 05:51:16;;;;;;;15.90;8.70;;;;;;;19.73;78.77;100058.53;1683719;84;21265;-54
2021/06/09 05:54:21;;;;;;;12.18;7.08;;;;;;;19.81;78.71;100063.72;1656116;86;21276;-54
2021/06/09 05:57:31;;;;;;;7.80;6.75;;;;;;;19.87;78.56;100064.70;1691679;83;21949;-54
2021/06/09 06:00:37;;;;;;;9.05;7.42;;;;;;;19.95;78.33;100060.13;1664264;84;21277;-56
2021/06/09 06:03:52;;;;;;;11.03;7.08;;;;;;;20.04;78.42;100060.06;1655906;86;21193;-56
2021/06/09 06:06:56;;;;;;;13.30;7.30;;;;;;;20.13;78.13;100058.05;1662198;85;21230;-55
2021/06/09 06:10:02;;;;;;;7.45;5.87;;;;;;;20.23;77.64;100054.10;1683672;85;21229;-55
2021/06/09 06:13:12;;;;;;;6.00;5.40;;;;;;;20.33;76.50;100057.64;1686777;81;21260;-53
2021/06/09 06:16:29;;;;;;;7.05;5.95;;;;;;;20.41;74.93;100062.28;1666607;86;21231;-53
2021/06/09 06:19:51;;;;;;;10.15;5.80;;;;;;;20.48;73.53;100053.80;1666501;86;21228;-53
2021/06/09 06:22:56;;;;;;;5.78;5.17;;;;;;;20.54;73.29;100061.14;1678848;83;21201;-55
2021/06/09 06:26:04;;;;;;;5.03;3.67;;;;;;;20.60;72.00;100053.19;1657498;85;21296;-55
2021/06/09 06:29:10;;;;;;;5.92;3.87;;;;;;;20.64;70.04;100057.17;1675150;84;21221;-55
2021/06/09 06:32:19;;;;;;;8.13;4.20;;;;;;;20.68;67.76;100053.64;1662741;86;21240;-53
2021/06/09 06:35:33;;;;;;;5.80;3.47;;;;;;;20.74;67.51;100054.56;1682419;84;21622;-54
2021/06/09 06:38:39;;;;;;;8.35;4.03;;;;;;;20.78;67.60;100042.71;1683057;85;21204;-53
2021/06/09 06:41:46;;;;;;;7.60;4.05;;;;;;;20.85;67.07;100042.56;1688059;84;21273;-52
2021/06/09 06:44:52;;;;;;;5.92;3.67;;;;;;;20.88;65.64;100043.45;1700687;84;21955;-52
2021/06/09 06:47:59;;;;;;;6.47;3.20;;;;;;;20.93;66.27;100046.86;1700691;84;21378;-54
2021/06/09 06:51:09;;;;;;;4.58;3.05;;;;;;;20.99;65.30;100042.56;1700080;84;21433;-51
2021/06/09 06:54:17;;;;;;;4.90;3.08;;;;;;;21.10;64.73;100049.99;1700876;84;21379;-52
2021/06/09 06:57:23;;;;;;;7.62;4.58;;;;;;;21.16;64.47;100042.55;1679185;84;21280;-51
2021/06/09 07:00:31;;;;;;;4.10;3.35;;;;;;;21.21;65.00;100037.08;1627924;87;21924;-54
2021/06/09 07:03:37;;;;;;;4.55;3.77;;;;;;;21.25;64.52;100042.45;1627795;88;21425;-54
2021/06/09 07:06:45;;;;;;;4.55;3.30;;;;;;;21.27;64.18;100038.30;1672257;86;21236;-53
2021/06/09 07:09:52;;;;;;;3.72;3.20;;;;;;;21.32;64.16;100041.71;1672362;86;21327;-52
2021/06/09 07:13:05;;;;;;;4.47;3.08;;;;;;;21.42;64.17;100040.49;1673116;80;21813;-56
2021/06/09 07:16:13;;;;;;;4.97;3.02;;;;;;;21.51;63.69;100035.63;1662586;85;21584;-57
2021/06/09 07:19:19;;;;;;;4.92;3.12;;;;;;;21.60;63.18;100035.48;1676861;83;21217;-55
2021/06/09 07:22:25;;;;;;;4.05;3.30;;;;;;;21.66;62.88;100030.27;1655629;86;21205;-53
2021/06/09 07:25:31;;;;;;;3.22;2.83;;;;;;;21.73;62.85;100033.73;1655708;86;21201;-53
2021/06/09 07:28:36;;;;;;;4.17;3.45;;;;;;;21.79;61.54;100027.16;1680296;85;21263;-54
2021/06/09 07:31:45;;;;;;;3.35;3.00;;;;;;;21.84;61.65;100032.81;1683195;83;21220;-52
2021/06/09 07:34:50;;;;;;;3.30;2.80;;;;;;;21.89;61.23;100028.70;1676102;85;21217;-54
2021/06/09 07:37:58;;;;;;;4.75;3.00;;;;;;;21.92;59.72;100032.91;1665633;84;21757;-55
2021/06/09 07:41:08;;;;;;;3.92;3.10;;;;;;;21.92;59.21;100028.72;1687523;84;21737;-53
2021/06/09 07:44:13;;;;;;;5.33;3.35;;;;;;;21.93;58.87;100032.64;1675771;85;21785;-54
2021/06/09 07:47:19;;;;;;;6.03;3.70;;;;;;;21.98;58.63;100031.33;1672992;85;21625;-55
2021/06/09 07:50:32;;;;;;;3.67;3.00;;;;;;;22.05;59.10;100021.38;1674481;84;21255;-55
2021/06/09 07:56:55;;;;;;;5.12;3.10;;;;;;;22.23;57.18;100028.58;1744523;82;21200;-54
2021/06/09 08:00:00;;;;;;;3.75;2.75;;;;;;;22.25;57.26;100020.80;1778201;79;21271;-56
2021/06/09 08:03:07;;;;;;;3.90;3.10;;;;;;;22.31;57.55;100016.97;1802175;79;21181;-54
2021/06/09 08:06:13;;;;;;;3.80;2.87;;;;;;;22.39;57.44;100020.11;1793810;78;21791;-54
2021/06/09 08:09:18;;;;;;;4.00;2.75;;;;;;;22.43;56.67;100017.11;1770583;80;21605;-55
2021/06/09 08:12:26;;;;;;;6.20;2.87;;;;;;;22.54;57.71;100017.55;1771454;81;21180;-54
2021/06/09 08:15:33;;;;;;;3.47;2.67;;;;;;;22.70;58.08;100013.81;1789978;79;21449;-54
2021/06/09 08:18:37;;;;;;;4.53;3.98;;;;;;;22.87;57.61;100019.27;1775503;78;21255;-56
2021/06/09 08:21:43;;;;;;;4.20;3.10;;;;;;;23.03;56.30;100021.95;1792037;78;21168;-54
2021/06/09 08:24:49;;;;;;;4.40;2.90;;;;;;;23.19;55.92;100020.13;1804337;78;21201;-54
2021/06/09 08:28:01;;;;;;;3.40;2.85;;;;;;;23.25;54.45;100017.66;1797691;78;21229;-58
2021/06/09 08:31:06;;;;;;;3.90;2.92;;;;;;;23.34;55.36;100019.72;1822598;78;21157;-56
2021/06/09 08:34:12;;;;;;;3.37;2.47;;;;;;;23.44;54.36;100021.75;1813379;78;22220;-57
2021/06/09 08:37:20;;;;;;;3.25;2.37;;;;;;;23.46;52.69;100019.53;1769965;80;21179;-57
2021/06/09 08:40:24;;;;;;;3.05;2.62;;;;;;;23.53;53.58;100020.16;1771465;80;21330;-56
2021/06/09 08:43:31;;;;;;;3.00;2.70;;;;;;;23.67;53.50;100018.57;1785181;78;21169;-57
2021/06/09 08:46:36;;;;;;;6.30;2.90;;;;;;;23.87;53.47;100013.63;1770615;81;21251;-55
2021/06/09 08:49:44;;;;;;;5.05;2.80;;;;;;;24.04;53.24;100011.55;1780879;79;21317;-54
2021/06/09 08:52:55;;;;;;;3.50;3.17;;;;;;;24.27;53.33;100015.27;1784233;78;21244;-55
2021/06/09 08:55:59;;;;;;;4.92;2.92;;;;;;;24.32;52.18;100013.34;1780668;78;21745;-55
2021/06/09 08:59:05;;;;;;;5.28;2.87;;;;;;;24.26;52.24;100025.61;1812412;78;21204;-55
2021/06/09 09:02:11;;;;;;;3.45;2.90;;;;;;;24.30;52.08;100010.52;1799902;79;21840;-53
2021/06/09 09:05:17;;;;;;;7.37;2.87;;;;;;;24.38;51.55;100006.64;1804289;79;21366;-55
2021/06/09 09:08:24;;;;;;;6.45;2.92;;;;;;;24.51;51.27;100007.53;1803461;79;21195;-53
2021/06/09 09:11:29;;;;;;;3.22;2.47;;;;;;;24.65;50.09;99996.62;1803537;79;21180;-57
2021/06/09 09:14:35;;;;;;;3.87;2.80;;;;;;;24.83;50.07;99994.75;1803446;79;21219;-55
2021/06/09 09:18:01;;;;;;;2.90;2.60;;;;;;;25.02;49.87;99991.68;1803317;79;21499;-53
2021/06/09 09:21:05;;;;;;;4.65;3.30;;;;;;;25.18;47.85;99986.91;1800696;79;21164;-56
2021/06/09 09:24:10;;;;;;;3.67;3.27;;;;;;;25.34;49.40;99988.63;1764087;81;21200;-56
2021/06/09 09:27:29;;;;;;;6.03;3.47;;;;;;;25.49;49.47;99991.39;1783205;78;21771;-57
2021/06/09 09:30:45;;;;;;;4.00;3.00;;;;;;;25.59;49.61;99984.38;1777059;78;21195;-56
2021/06/09 09:33:48;;;;;;;3.25;2.80;;;;;;;25.62;49.13;99975.39;1773094;81;21179;-56
2021/06/09 09:36:54;;;;;;;3.98;3.02;;;;;;;25.62;49.13;99979.59;1773446;80;21294;-59
2021/06/09 09:40:22;;;;;;;5.05;3.02;;;;;;;25.59;48.67;99969.80;1773487;81;21446;-57
2021/06/09 09:43:29;;;;;;;2.83;2.52;;;;;;;25.56;48.74;99973.14;1773774;80;21349;-57
2021/06/09 09:46:42;;;;;;;4.58;3.08;;;;;;;25.55;48.91;99967.83;1766402;79;21373;-55
2021/06/09 09:49:51;;;;;;;4.65;2.80;;;;;;;25.65;49.22;99972.87;1773240;80;21751;-55
2021/06/09 09:52:56;;;;;;;11.00;9.95;;;;;;;25.68;47.74;99973.70;1773734;81;21756;-56
2021/06/09 09:56:22;;;;;;;3.02;2.58;;;;;;;25.76;47.20;99968.91;1772978;79;21350;-55
2021/06/09 09:59:30;;;;;;;2.67;2.35;;;;;;;25.97;47.03;99963.48;1780832;79;21200;-54
2021/06/09 10:02:39;;;;;;;4.85;2.20;;;;;;;26.30;46.75;99963.38;1802173;78;21706;-54
2021/06/09 10:05:47;;;;;;;2.98;2.67;;;;;;;26.53;46.34;99960.45;1778707;80;21300;-51
2021/06/09 10:08:57;;;;;;;6.75;2.92;;;;;;;26.66;46.41;99966.28;1790804;78;21351;-55
2021/06/09 10:12:17;;;;;;;5.97;2.75;;;;;;;26.53;47.13;99966.88;1773450;81;21839;-53
2021/06/09 10:15:50;;;;;;;2.40;2.20;;;;;;;26.28;47.39;99967.88;1773250;81;21291;-53
2021/06/09 10:19:19;;;;;;;2.45;2.25;;;;;;;25.93;48.46;99965.20;1773740;81;21373;-53
2021/06/09 10:22:28;;;;;;;3.95;2.17;;;;;;;25.76;49.04;99963.30;1773947;81;21188;-53
2021/06/09 10:25:32;;;;;;;4.12;2.40;;;;;;;25.68;49.09;99963.03;1800550;79;21325;-56
2021/06/09 10:28:58;;;;;;;4.30;2.80;;;;;;;25.55;49.34;99959.41;1804847;79;21733;-53
2021/06/09 10:32:08;;;;;;;4.37;2.50;;;;;;;25.50;49.38;99965.06;1813916;78;21236;-51
2021/06/09 10:35:15;;;;;;;5.03;2.70;;;;;;;25.44;49.98;99960.56;1799319;78;21362;-53
2021/06/09 10:38:21;;;;;;;3.08;2.12;;;;;;;25.42;51.65;99963.64;1802388;78;21970;-55
2021/06/09 10:41:27;;;;;;;5.70;3.05;;;;;;;25.31;51.78;99971.76;1808002;78;21188;-54
2021/06/09 10:44:35;;;;;;;5.72;2.87;;;;;;;25.17;52.34;99976.25;1796017;78;21725;-54
2021/06/09 10:47:42;;;;;;;3.98;2.50;;;;;;;25.17;53.18;99981.00;1836120;78;21172;-54
2021/06/09 10:50:50;;;;;;;4.22;2.62;;;;;;;25.13;53.84;99986.36;1819893;78;21220;-53
2021/06/09 10:53:56;;;;;;;4.65;2.12;;;;;;;25.13;54.54;100000.92;1766164;81;21207;-53
2021/06/09 10:57:02;;;;;;;2.50;2.00;;;;;;;25.08;53.44;99996.70;1756470;81;21728;-53
2021/06/09 11:00:07;;;;;;;2.60;2.40;;;;;;;24.90;53.06;99986.34;1769723;80;21499;-54
2021/06/09 11:03:18;;;;;;;5.12;2.65;;;;;;;24.86;53.43;99975.40;1795598;78;21230;-55
2021/06/09 11:06:24;;;;;;;2.58;2.10;;;;;;;24.88;53.62;99974.56;1814157;78;21160;-54
2021/06/09 11:09:34;;;;;;;4.67;2.15;;;;;;;24.73;53.12;99982.97;1836483;78;21200;-55
2021/06/09 11:12:57;;;;;;;9.90;2.80;;;;;;;24.60;54.31;99980.67;1819475;78;21322;-55
2021/06/09 11:16:25;;;;;;;2.42;2.17;;;;;;;24.76;55.05;99982.41;1799105;78;21204;-55
2021/06/09 11:19:42;;;;;;;3.22;1.85;;;;;;;25.03;54.20;99971.79;1786895;79;21189;-53
2021/06/09 11:22:49;;;;;;;2.62;1.80;;;;;;;25.40;50.39;99979.93;1804999;79;21759;-54
2021/06/09 11:25:58;;;;;;;4.53;2.17;;;;;;;25.55;50.84;99981.29;1795357;79;21585;-55
2021/06/09 11:29:04;;;;;;;2.10;1.90;;;;;;;25.69;51.36;99981.56;1783612;78;21197;-54
2021/06/09 11:32:30;;;;;;;2.22;2.00;;;;;;;25.81;52.12;99980.12;1773451;79;21240;-54
2021/06/09 11:35:57;;;;;;;5.08;1.98;;;;;;;25.99;52.90;99974.45;1791282;78;21309;-54
2021/06/09 11:39:06;;;;;;;2.15;1.92;;;;;;;26.07;52.83;99972.45;1772810;79;21169;-54
2021/06/09 11:42:21;;;;;;;3.05;2.22;;;;;;;26.11;51.93;99959.55;1773887;80;21713;-54
2021/06/09 11:45:35;;;;;;;5.80;1.82;;;;;;;26.23;52.07;99957.23;1768938;79;21761;-56
2021/06/09 11:48:42;;;;;;;4.75;2.27;;;;;;;26.35;51.83;99952.95;1773796;81;21705;-55
2021/06/09 11:51:54;;;;;;;5.00;2.15;;;;;;;26.29;50.37;99947.09;1781331;79;21390;-57
2021/06/09 11:55:19;;;;;;;10.90;2.10;;;;;;;26.34;50.87;99953.24;1805097;79;21775;-56
2021/06/09 11:58:25;;;;;;;1.98;1.40;;;;;;;26.37;49.34;99943.69;1783276;79;21217;-55
2021/06/09 12:01:33;;;;;;;5.12;1.82;;;;;;;26.60;48.27;99941.30;1794328;79;21192;-55
2021/06/09 12:04:51;;;;;;;3.15;1.62;;;;;;;26.69;47.87;99941.82;1812982;78;21970;-56
2021/06/09 12:07:57;;;;;;;4.75;1.50;;;;;;;26.85;47.28;99940.58;1798645;79;21201;-55
2021/06/09 12:11:01;;;;;;;6.92;1.62;;;;;;;27.04;47.85;99937.33;1805290;79;21212;-55
2021/06/09 12:14:10;;;;;;;7.37;2.15;;;;;;;27.19;47.32;99934.95;1805700;79;21235;-55
2021/06/09 12:17:23;;;;;;;2.52;1.30;;;;;;;27.25;47.02;99934.61;1805636;79;21216;-55
2021/06/09 12:20:34;;;;;;;5.92;2.22;;;;;;;27.30;47.60;99928.98;1773635;80;21209;-55
2021/06/09 12:24:01;;;;;;;4.50;1.80;;;;;;;27.33;47.00;99926.13;1774668;81;21697;-55
2021/06/09 12:27:11;;;;;;;6.25;1.50;;;;;;;27.49;47.12;99926.24;1774595;81;21212;-55
2021/06/09 12:30:27;;;;;;;6.95;1.92;;;;;;;27.56;46.23;99937.96;1787926;79;21832;-54
2021/06/09 12:33:46;;;;;;;5.28;1.87;;;;;;;27.55;46.63;99942.77;1788787;80;21209;-56
2021/06/09 12:37:15;;;;;;;5.47;2.00;;;;;;;27.42;45.77;99944.87;1789588;78;21571;-55
2021/06/09 12:40:34;;;;;;;5.45;2.05;;;;;;;27.13;46.04;99946.79;1838692;78;21761;-55
2021/06/09 12:43:39;;;;;;;7.70;2.25;;;;;;;27.04;46.52;99942.95;1838950;78;21801;-55
2021/06/09 12:46:50;;;;;;;4.28;1.65;;;;;;;27.15;48.23;99945.09;1838668;78;21730;-54
2021/06/09 12:49:56;;;;;;;2.40;1.77;;;;;;;27.30;47.78;99950.06;1838356;78;21733;-53
2021/06/09 12:53:06;;;;;;;2.27;1.40;;;;;;;27.36;47.26;99946.62;1795231;78;21251;-55
2021/06/09 12:56:18;;;;;;;2.22;1.42;;;;;;;27.28;46.27;99948.11;1804403;79;21239;-55
2021/06/09 12:59:38;;;;;;;6.37;1.85;;;;;;;27.21;46.22;99939.72;1797235;78;21259;-56
2021/06/09 13:02:44;;;;;;;6.92;1.40;;;;;;;27.22;47.49;99932.39;1796323;79;21211;-55
2021/06/09 13:06:09;;;;;;;3.25;1.62;;;;;;;27.24;47.86;99928.70;1804911;78;21196;-55
2021/06/09 13:09:16;;;;;;;3.12;1.50;;;;;;;27.25;46.58;99926.73;1832911;78;21778;-54
2021/06/09 13:12:27;;;;;;;2.98;1.57;;;;;;;27.18;47.52;99917.83;1827774;78;21370;-56
2021/06/09 13:15:37;;;;;;;5.15;1.57;;;;;;;27.29;47.02;99918.03;1825627;78;21343;-54
2021/06/09 13:18:51;;;;;;;3.95;1.47;;;;;;;27.35;46.69;99926.09;1832432;78;21880;-55
2021/06/09 13:21:57;;;;;;;3.35;1.50;;;;;;;27.36;46.43;99928.34;1833217;78;21437;-55
2021/06/09 13:25:03;;;;;;;4.35;1.62;;;;;;;27.25;46.64;99930.95;1833623;78;21355;-56
2021/06/09 13:28:11;;;;;;;8.20;2.50;;;;;;;26.98;46.37;99920.24;1833795;78;21362;-56
2021/06/09 13:31:17;;;;;;;3.77;1.70;;;;;;;26.78;47.66;99917.61;1833203;78;21721;-55
2021/06/09 13:34:26;;;;;;;5.45;2.05;;;;;;;26.57;47.92;99918.86;1833616;78;21370;-55
2021/06/09 13:37:39;;;;;;;5.22;1.70;;;;;;;26.33;48.94;99909.47;1833646;78;21374;-55
2021/06/09 13:40:46;;;;;;;4.17;1.65;;;;;;;26.12;48.67;99913.52;1833676;78;21385;-58
2021/06/09 13:43:51;;;;;;;3.92;1.50;;;;;;;25.88;50.08;99913.31;1833110;78;21354;-53
2021/06/09 13:47:00;;;;;;;2.92;1.70;;;;;;;25.56;51.49;99903.64;1833063;78;21189;-55
2021/06/09 13:50:13;;;;;;;3.85;1.72;;;;;;;25.17;51.84;99899.75;1774256;78;21342;-54
2021/06/09 13:53:21;;;;;;;4.30;1.75;;;;;;;25.03;52.51;99897.55;1769265;80;21362;-55
2021/06/09 13:56:40;;;;;;;3.30;1.70;;;;;;;25.08;53.69;99891.66;1769838;80;21736;-55
2021/06/09 14:00:03;;;;;;;2.30;1.80;;;;;;;25.14;53.40;99886.31;1769561;80;21208;-55
2021/06/09 14:03:12;;;;;;;2.95;1.80;;;;;;;25.28;53.46;99886.85;1771358;80;21203;-54
2021/06/09 14:06:22;;;;;;;2.85;1.80;;;;;;;25.42;55.17;99881.55;1787708;78;21193;-53
2021/06/09 14:09:27;;;;;;;3.72;2.00;;;;;;;25.61;54.31;99879.21;1838340;78;21213;-55
2021/06/09 14:12:48;;;;;;;3.47;2.10;;;;;;;25.76;52.69;99876.91;1820344;78;21374;-55
2021/06/09 14:16:00;;;;;;;8.60;2.27;;;;;;;25.89;53.56;99875.74;1837609;78;21189;-55
2021/06/09 14:19:11;;;;;;;5.83;2.40;;;;;;;26.03;51.63;99868.95;1837850;78;21926;-56
2021/06/09 14:22:33;;;;;;;2.55;1.67;;;;;;;26.11;51.64;99869.75;1837926;78;21326;-54
2021/06/09 14:25:51;;;;;;;4.22;2.05;;;;;;;26.16;50.49;99871.95;1837961;78;21350;-54
2021/06/09 14:28:57;;;;;;;4.05;2.40;;;;;;;26.15;50.46;99868.03;1837405;78;21295;-55
2021/06/09 14:32:02;;;;;;;6.22;2.08;;;;;;;26.01;50.83;99869.80;1821749;78;21279;-54
2021/06/09 14:35:36;;;;;;;2.98;2.00;;;;;;;26.00;50.41;99869.53;1801829;78;21382;-54
2021/06/09 14:38:49;;;;;;;3.22;1.80;;;;;;;25.91;50.88;99869.84;1778176;80;21382;-55
2021/06/09 14:41:59;;;;;;;4.90;2.20;;;;;;;25.78;50.27;99866.25;1710291;83;21347;-54
2021/06/09 14:45:06;;;;;;;4.53;2.37;;;;;;;25.93;50.96;99866.16;1709279;83;21400;-54
2021/06/09 14:48:46;;;;;;;7.47;2.62;;;;;;;26.11;50.61;99865.55;1699263;84;21766;-54